Time;durP1;ratioP1;P1;durP2;ratioP2;P2;SDS_P1;SDS_P2;PMS_P1;PMS_P2;Temp;Humidity;BMP_temperature;BMP_pressure;BME280_temperature;BME280_humidity;BME280_pressure;Samples;Min_cycle;Max_cycle;Signal;HPM_P1;HPM_P2
2023/03/26 00:01:15;;;;;;;11.32;5.30;;;;;;;;;;4414789;32;317335;-92
2023/03/26 00:03:45;;;;;;;8.23;4.40;;;;;;;;;;4424468;32;321057;-91
2023/03/26 00:06:14;;;;;;;12.57;4.55;;;;;;;;;;4414901;32;317131;-93
2023/03/26 00:08:45;;;;;;;8.75;4.20;;;;;;;;;;4423249;32;317631;-92
2023/03/26 00:11:15;;;;;;;7.70;3.58;;;;;;;;;;4414079;32;317427;-93
2023/03/26 00:13:42;;;;;;;6.62;4.10;;;;;;;;;;4422518;32;316753;-91
2023/03/26 00:16:10;;;;;;;7.50;4.25;;;;;;;;;;4413254;32;317292;-91
2023/03/26 00:18:39;;;;;;;8.52;4.65;;;;;;;;;;4423901;32;316596;-91
2023/03/26 00:21:08;;;;;;;9.63;3.93;;;;;;;;;;4412928;32;324068;-90
2023/03/26 00:23:37;;;;;;;6.00;4.13;;;;;;;;;;4421163;32;317101;-90
2023/03/26 00:26:09;;;;;;;5.32;4.40;;;;;;;;;;4412086;32;317498;-90
2023/03/26 00:28:37;;;;;;;6.00;4.30;;;;;;;;;;4422718;32;316248;-95
2023/03/26 00:31:05;;;;;;;4.87;3.97;;;;;;;;;;4412924;32;316286;-93
2023/03/26 00:33:37;;;;;;;4.90;3.72;;;;;;;;;;4422869;32;317232;-93
2023/03/26 00:36:09;;;;;;;6.90;4.10;;;;;;;;;;4413094;32;317250;-92
2023/03/26 00:38:37;;;;;;;4.28;3.67;;;;;;;;;;4422067;32;317196;-94
2023/03/26 00:41:06;;;;;;;4.72;3.45;;;;;;;;;;4412326;32;316289;-91
2023/03/26 00:43:35;;;;;;;4.07;3.50;;;;;;;;;;4422337;32;317292;-91
2023/03/26 00:46:02;;;;;;;4.63;3.67;;;;;;;;;;4412310;32;317035;-91
2023/03/26 00:48:29;;;;;;;5.10;3.75;;;;;;;;;;4422578;32;317284;-94
2023/03/26 00:50:57;;;;;;;4.57;3.40;;;;;;;;;;4410220;32;315329;-91
2023/03/26 00:53:25;;;;;;;4.55;3.40;;;;;;;;;;4423420;32;316687;-91
2023/03/26 00:55:52;;;;;;;5.62;3.65;;;;;;;;;;4422446;32;352534;-91
2023/03/26 00:58:21;;;;;;;4.77;3.80;;;;;;;;;;4413358;32;317177;-91
2023/03/26 01:00:52;;;;;;;5.28;4.07;;;;;;;;;;4423306;32;316457;-94
2023/03/26 01:03:21;;;;;;;4.43;3.40;;;;;;;;;;4413060;32;317471;-92
2023/03/26 01:05:51;;;;;;;4.18;3.50;;;;;;;;;;4422886;32;316420;-91
2023/03/26 01:08:31;;;;;;;6.22;3.58;;;;;;;;;;4412094;32;327518;-92
2023/03/26 01:11:03;;;;;;;4.65;3.97;;;;;;;;;;4412951;32;317513;-92
2023/03/26 01:13:34;;;;;;;5.25;4.10;;;;;;;;;;4424646;32;317474;-92
2023/03/26 01:16:02;;;;;;;8.40;4.30;;;;;;;;;;4409208;32;316631;-94
2023/03/26 01:18:39;;;;;;;8.07;4.17;;;;;;;;;;4412737;32;316544;-94
2023/03/26 01:21:08;;;;;;;7.03;4.87;;;;;;;;;;4414427;32;316834;-94
2023/03/26 01:23:45;;;;;;;4.80;4.05;;;;;;;;;;4423513;32;335313;-96
2023/03/26 01:26:29;;;;;;;5.03;3.77;;;;;;;;;;4414714;32;316340;-95
2023/03/26 01:29:02;;;;;;;8.70;4.05;;;;;;;;;;4414158;32;317413;-92
2023/03/26 01:31:36;;;;;;;4.65;3.53;;;;;;;;;;4423600;32;315229;-93
2023/03/26 01:34:12;;;;;;;3.53;2.80;;;;;;;;;;4415271;32;317143;-92
2023/03/26 01:36:47;;;;;;;5.17;3.53;;;;;;;;;;4424452;32;316339;-94
2023/03/26 01:39:24;;;;;;;5.63;3.73;;;;;;;;;;4413997;32;316990;-94
2023/03/26 01:41:57;;;;;;;5.80;3.55;;;;;;;;;;4425995;32;316368;-93
2023/03/26 01:44:28;;;;;;;7.50;4.07;;;;;;;;;;4411880;32;416166;-94
2023/03/26 01:46:56;;;;;;;5.97;3.87;;;;;;;;;;4416685;32;316865;-88
2023/03/26 01:49:23;;;;;;;5.43;3.33;;;;;;;;;;4429608;32;354970;-91
2023/03/26 01:51:51;;;;;;;3.87;3.23;;;;;;;;;;4433118;32;315066;-92
2023/03/26 01:54:22;;;;;;;3.78;3.25;;;;;;;;;;4416059;32;316354;-95
2023/03/26 01:57:00;;;;;;;3.37;2.40;;;;;;;;;;4423566;32;316484;-94
2023/03/26 01:59:43;;;;;;;6.33;2.80;;;;;;;;;;4409538;32;414851;-94
2023/03/26 02:02:14;;;;;;;3.03;2.50;;;;;;;;;;4411249;32;346018;-93
2023/03/26 02:04:51;;;;;;;5.03;2.30;;;;;;;;;;4422937;32;316572;-93
2023/03/26 02:07:27;;;;;;;3.83;3.03;;;;;;;;;;4413596;32;316651;-94
2023/03/26 02:09:59;;;;;;;8.47;2.50;;;;;;;;;;4425516;32;336729;-93
2023/03/26 02:12:28;;;;;;;2.33;2.03;;;;;;;;;;4411784;32;416646;-94
2023/03/26 02:14:55;;;;;;;3.63;2.50;;;;;;;;;;4413674;32;317308;-93
2023/03/26 02:17:23;;;;;;;5.53;1.90;;;;;;;;;;4421848;32;316398;-94
2023/03/26 02:19:51;;;;;;;3.13;2.20;;;;;;;;;;4423556;32;317173;-94
2023/03/26 02:22:19;;;;;;;4.27;2.87;;;;;;;;;;4414284;32;316591;-95
2023/03/26 02:24:46;;;;;;;6.50;2.40;;;;;;;;;;4422663;32;317024;-93
2023/03/26 02:27:17;;;;;;;2.30;2.00;;;;;;;;;;4412920;32;316966;-96
2023/03/26 02:29:46;;;;;;;2.67;2.20;;;;;;;;;;4424113;32;316426;-95
2023/03/26 02:32:13;;;;;;;3.80;2.30;;;;;;;;;;4413410;32;346045;-95
2023/03/26 02:34:41;;;;;;;2.80;2.30;;;;;;;;;;4422219;32;316264;-92
2023/03/26 02:37:08;;;;;;;2.60;2.03;;;;;;;;;;4412268;32;317164;-92
2023/03/26 02:39:35;;;;;;;2.50;1.73;;;;;;;;;;4422504;32;317383;-92
2023/03/26 02:42:02;;;;;;;3.63;2.30;;;;;;;;;;4412461;32;316412;-92
2023/03/26 02:44:29;;;;;;;4.27;2.33;;;;;;;;;;4421827;32;316428;-92
2023/03/26 02:46:57;;;;;;;2.90;2.30;;;;;;;;;;4412469;32;316398;-92
2023/03/26 02:49:24;;;;;;;2.43;1.93;;;;;;;;;;4421116;32;317193;-92
2023/03/26 02:51:55;;;;;;;2.70;2.17;;;;;;;;;;4421090;32;316606;-92
2023/03/26 02:54:21;;;;;;;2.23;1.60;;;;;;;;;;4409655;32;416463;-93
2023/03/26 02:56:49;;;;;;;2.70;1.87;;;;;;;;;;4422264;32;316485;-92
2023/03/26 02:59:15;;;;;;;2.47;1.70;;;;;;;;;;4413231;32;317191;-93
2023/03/26 03:01:45;;;;;;;2.93;1.93;;;;;;;;;;4421716;32;317502;-93
2023/03/26 03:04:13;;;;;;;4.77;1.90;;;;;;;;;;4412573;32;317377;-93
2023/03/26 03:06:40;;;;;;;3.37;2.27;;;;;;;;;;4422118;32;317158;-93
2023/03/26 03:09:08;;;;;;;4.73;3.07;;;;;;;;;;4414936;32;317379;-94
2023/03/26 03:11:35;;;;;;;5.73;4.10;;;;;;;;;;4422899;32;316400;-92
2023/03/26 03:14:04;;;;;;;8.33;6.57;;;;;;;;;;4412343;32;316406;-95
2023/03/26 03:16:31;;;;;;;6.73;4.80;;;;;;;;;;4421809;32;316347;-93
2023/03/26 03:18:59;;;;;;;4.30;2.30;;;;;;;;;;4412002;32;317145;-92
2023/03/26 03:21:28;;;;;;;3.67;2.47;;;;;;;;;;4421454;32;316866;-94
2023/03/26 03:23:56;;;;;;;2.63;2.07;;;;;;;;;;4410529;32;317168;-92
2023/03/26 03:26:26;;;;;;;3.20;1.97;;;;;;;;;;4421538;32;316436;-93
2023/03/26 03:28:53;;;;;;;3.37;1.70;;;;;;;;;;4422432;32;316690;-92
2023/03/26 03:31:20;;;;;;;3.10;1.90;;;;;;;;;;4406729;32;415963;-90
2023/03/26 03:33:47;;;;;;;3.20;1.53;;;;;;;;;;4420795;32;317113;-90
2023/03/26 03:36:16;;;;;;;2.43;1.60;;;;;;;;;;4410867;32;317075;-90
2023/03/26 03:38:45;;;;;;;2.03;1.30;;;;;;;;;;4425171;32;316649;-92
2023/03/26 03:41:12;;;;;;;1.43;1.20;;;;;;;;;;4416475;32;316366;-91
2023/03/26 03:43:39;;;;;;;1.93;1.33;;;;;;;;;;4424531;32;316216;-93
2023/03/26 03:46:06;;;;;;;3.17;2.10;;;;;;;;;;4413486;32;317255;-93
2023/03/26 03:48:37;;;;;;;2.27;1.73;;;;;;;;;;4424702;32;316207;-94
2023/03/26 03:51:05;;;;;;;1.60;1.30;;;;;;;;;;4417160;32;317110;-94
2023/03/26 03:53:35;;;;;;;4.10;1.80;;;;;;;;;;4429338;32;316533;-94
2023/03/26 03:56:08;;;;;;;20.47;14.37;;;;;;;;;;4405719;32;336500;-95
2023/03/26 03:58:36;;;;;;;26.07;15.53;;;;;;;;;;4421155;32;318424;-94
2023/03/26 04:01:03;;;;;;;27.70;18.70;;;;;;;;;;4415286;32;319005;-93
2023/03/26 04:03:30;;;;;;;37.37;25.00;;;;;;;;;;4426221;32;319879;-93
2023/03/26 04:05:57;;;;;;;16.73;12.77;;;;;;;;;;4416194;32;320138;-92
2023/03/26 04:08:24;;;;;;;14.40;10.47;;;;;;;;;;4425491;32;319338;-93
2023/03/26 04:10:52;;;;;;;10.63;6.30;;;;;;;;;;4423759;32;318708;-94
2023/03/26 04:13:20;;;;;;;61.33;35.60;;;;;;;;;;4413804;32;317732;-94
2023/03/26 04:15:47;;;;;;;35.33;20.40;;;;;;;;;;4424251;32;319737;-93
2023/03/26 04:18:13;;;;;;;17.23;11.33;;;;;;;;;;4414877;32;318506;-95
2023/03/26 04:20:45;;;;;;;6.40;2.53;;;;;;;;;;4424047;32;318627;-92
2023/03/26 04:23:13;;;;;;;2.83;1.90;;;;;;;;;;4415608;32;316825;-91
2023/03/26 04:25:41;;;;;;;3.13;2.10;;;;;;;;;;4424405;32;317569;-93
2023/03/26 04:28:10;;;;;;;8.63;3.30;;;;;;;;;;4414760;32;317201;-96
2023/03/26 04:30:41;;;;;;;2.57;2.20;;;;;;;;;;4425805;32;316498;-96
2023/03/26 04:33:14;;;;;;;3.10;2.40;;;;;;;;;;4414578;32;316977;-94
2023/03/26 04:35:43;;;;;;;2.50;1.70;;;;;;;;;;4423477;32;316547;-90
2023/03/26 04:38:11;;;;;;;3.03;1.60;;;;;;;;;;4414419;32;317139;-95
2023/03/26 04:40:41;;;;;;;3.93;2.37;;;;;;;;;;4430643;32;315221;-96
2023/03/26 04:43:13;;;;;;;5.20;1.70;;;;;;;;;;4422376;32;316080;-96
2023/03/26 04:45:42;;;;;;;1.30;1.10;;;;;;;;;;4433922;32;315272;-89
2023/03/26 04:48:13;;;;;;;1.37;1.20;;;;;;;;;;4417794;32;316424;-92
2023/03/26 04:50:40;;;;;;;2.27;1.10;;;;;;;;;;4409731;32;316405;-92
2023/03/26 04:53:07;;;;;;;2.97;1.73;;;;;;;;;;4405175;32;317282;-91
2023/03/26 04:55:41;;;;;;;7.07;3.00;;;;;;;;;;4423177;32;320352;-92
2023/03/26 04:58:08;;;;;;;7.17;4.50;;;;;;;;;;4413696;32;316433;-93
2023/03/26 05:00:35;;;;;;;9.07;4.70;;;;;;;;;;4422604;32;316756;-94
2023/03/26 05:03:03;;;;;;;5.73;4.13;;;;;;;;;;4413908;32;317317;-94
2023/03/26 05:05:30;;;;;;;7.60;4.70;;;;;;;;;;4422605;32;317102;-95
2023/03/26 05:07:57;;;;;;;10.03;6.17;;;;;;;;;;4412282;32;316590;-93
2023/03/26 05:10:24;;;;;;;10.40;7.33;;;;;;;;;;4420259;32;318126;-93
2023/03/26 05:12:50;;;;;;;15.43;10.63;;;;;;;;;;4422430;32;318014;-92
2023/03/26 05:15:17;;;;;;;11.53;8.30;;;;;;;;;;4411855;32;319306;-95
2023/03/26 05:17:47;;;;;;;9.77;5.90;;;;;;;;;;4422903;32;320867;-94
2023/03/26 05:20:19;;;;;;;11.33;5.67;;;;;;;;;;4415774;32;331975;-93
2023/03/26 05:22:46;;;;;;;6.97;4.43;;;;;;;;;;4423113;32;317465;-93
2023/03/26 05:25:13;;;;;;;6.70;4.10;;;;;;;;;;4414060;32;317322;-94
2023/03/26 05:27:40;;;;;;;6.30;4.30;;;;;;;;;;4423962;32;317366;-94
2023/03/26 05:30:08;;;;;;;5.33;3.83;;;;;;;;;;4413306;32;317225;-94
2023/03/26 05:32:36;;;;;;;6.17;4.27;;;;;;;;;;4424244;32;317195;-93
2023/03/26 05:35:04;;;;;;;6.53;4.13;;;;;;;;;;4413499;32;317418;-93
2023/03/26 05:37:32;;;;;;;6.73;4.27;;;;;;;;;;4424344;32;316573;-92
2023/03/26 05:40:00;;;;;;;6.83;4.20;;;;;;;;;;4410473;32;316590;-93
2023/03/26 05:42:26;;;;;;;5.83;4.20;;;;;;;;;;4422016;32;315775;-93
2023/03/26 05:44:53;;;;;;;9.73;5.03;;;;;;;;;;4422975;32;316467;-94
2023/03/26 05:47:20;;;;;;;32.10;17.43;;;;;;;;;;4411299;32;416003;-93
2023/03/26 05:49:47;;;;;;;51.10;26.70;;;;;;;;;;4424100;32;319460;-92
2023/03/26 05:52:17;;;;;;;27.53;16.23;;;;;;;;;;4411984;32;319603;-92
2023/03/26 05:54:46;;;;;;;21.43;14.73;;;;;;;;;;4423182;32;319130;-93
2023/03/26 05:57:13;;;;;;;43.80;25.10;;;;;;;;;;4412019;32;319131;-93
2023/03/26 05:59:42;;;;;;;81.40;39.97;;;;;;;;;;4422033;32;319216;-93
2023/03/26 06:02:09;;;;;;;65.80;33.33;;;;;;;;;;4411243;32;318746;-93
2023/03/26 06:04:39;;;;;;;31.50;18.77;;;;;;;;;;4423713;32;319413;-94
2023/03/26 06:07:08;;;;;;;14.87;8.53;;;;;;;;;;4413431;32;319367;-95
2023/03/26 06:09:37;;;;;;;10.77;6.90;;;;;;;;;;4421676;32;352756;-95
2023/03/26 06:12:09;;;;;;;16.67;6.63;;;;;;;;;;4416140;32;317691;-93
2023/03/26 06:14:36;;;;;;;12.53;7.87;;;;;;;;;;4429194;32;318169;-91
2023/03/26 06:17:03;;;;;;;13.80;6.40;;;;;;;;;;4415185;32;317801;-90
2023/03/26 06:19:30;;;;;;;11.80;6.93;;;;;;;;;;4425150;32;316373;-93
2023/03/26 06:21:57;;;;;;;11.13;7.70;;;;;;;;;;4413840;32;318222;-86
2023/03/26 06:24:24;;;;;;;10.57;4.93;;;;;;;;;;4422981;32;317723;-91
2023/03/26 06:26:51;;;;;;;6.53;4.03;;;;;;;;;;4421227;32;318198;-91
2023/03/26 06:29:20;;;;;;;5.40;3.23;;;;;;;;;;4411657;32;316583;-91
2023/03/26 06:31:47;;;;;;;5.00;3.80;;;;;;;;;;4419908;32;316646;-92
2023/03/26 06:34:14;;;;;;;3.93;3.00;;;;;;;;;;4401970;32;316945;-92
2023/03/26 06:36:41;;;;;;;3.60;2.60;;;;;;;;;;4410011;32;316739;-93
2023/03/26 06:39:11;;;;;;;4.40;2.30;;;;;;;;;;4413874;32;316409;-93
2023/03/26 06:41:38;;;;;;;2.23;1.63;;;;;;;;;;4430147;32;315103;-94
2023/03/26 06:44:05;;;;;;;3.90;3.00;;;;;;;;;;4418646;32;316563;-91
2023/03/26 06:46:33;;;;;;;3.63;2.53;;;;;;;;;;4421489;32;316714;-94
2023/03/26 06:49:00;;;;;;;4.70;3.50;;;;;;;;;;4413355;32;317631;-92
2023/03/26 06:51:27;;;;;;;6.30;3.70;;;;;;;;;;4422964;32;316496;-92
2023/03/26 06:53:54;;;;;;;5.47;4.32;;;;;;;;;;4423532;32;316623;-92
2023/03/26 06:56:22;;;;;;;7.10;6.40;;;;;;;;;;4410599;32;411813;-93
2023/03/26 06:58:48;;;;;;;8.37;6.07;;;;;;;;;;4424803;32;316967;-94
2023/03/26 07:01:15;;;;;;;6.07;5.33;;;;;;;;;;4412753;32;317558;-94
2023/03/26 07:03:44;;;;;;;4.43;3.67;;;;;;;;;;4422788;32;316748;-94
2023/03/26 07:06:10;;;;;;;6.00;5.40;;;;;;;;;;4412091;32;317817;-90
2023/03/26 07:08:37;;;;;;;3.27;3.00;;;;;;;;;;4422359;32;317273;-92
2023/03/26 07:11:05;;;;;;;3.43;3.13;;;;;;;;;;4412517;32;316807;-92
2023/03/26 07:13:32;;;;;;;6.33;5.27;;;;;;;;;;4424203;32;316473;-93
2023/03/26 07:15:59;;;;;;;6.80;4.77;;;;;;;;;;4413825;32;316443;-93
2023/03/26 07:18:26;;;;;;;5.57;2.90;;;;;;;;;;4425333;32;317152;-92
2023/03/26 07:20:54;;;;;;;2.67;2.47;;;;;;;;;;4423211;32;316304;-91
2023/03/26 07:23:22;;;;;;;2.70;2.43;;;;;;;;;;4411579;32;418141;-92
2023/03/26 07:25:50;;;;;;;4.97;2.80;;;;;;;;;;4431712;32;316723;-91
2023/03/26 07:28:25;;;;;;;3.05;2.67;;;;;;;;;;4426096;32;316449;-93
2023/03/26 07:31:02;;;;;;;7.90;3.92;;;;;;;;;;4436078;32;315384;-92
2023/03/26 07:33:35;;;;;;;5.20;4.50;;;;;;;;;;4424480;32;414003;-93
2023/03/26 07:36:12;;;;;;;3.97;3.30;;;;;;;;;;4425975;32;315372;-91
2023/03/26 07:38:49;;;;;;;5.97;3.13;;;;;;;;;;4436105;32;316391;-92
2023/03/26 07:41:23;;;;;;;2.67;2.47;;;;;;;;;;4425747;32;316266;-96
2023/03/26 07:44:22;;;;;;;4.97;3.45;;;;;;;;;;4432650;32;316960;-90
2023/03/26 07:46:52;;;;;;;3.15;2.85;;;;;;;;;;4418746;32;428729;-92
2023/03/26 07:49:20;;;;;;;3.43;3.13;;;;;;;;;;4415823;32;348575;-92
2023/03/26 07:51:49;;;;;;;2.63;2.43;;;;;;;;;;4426262;32;342273;-91
2023/03/26 07:54:16;;;;;;;4.07;3.67;;;;;;;;;;4415792;32;316609;-94
2023/03/26 07:56:52;;;;;;;5.57;3.50;;;;;;;;;;4426239;32;315347;-95
2023/03/26 07:59:29;;;;;;;2.80;2.60;;;;;;;;;;4414445;32;317150;-93
2023/03/26 08:02:22;;;;;;;3.90;2.57;;;;;;;;;;4415581;32;316621;-93
2023/03/26 08:05:03;;;;;;;4.47;3.78;;;;;;;;;;4424968;32;321440;-95
2023/03/26 08:07:43;;;;;;;3.37;3.07;;;;;;;;;;4412177;32;417128;-89
2023/03/26 08:10:17;;;;;;;2.30;2.10;;;;;;;;;;4413059;32;317658;-92
2023/03/26 08:12:53;;;;;;;3.40;3.10;;;;;;;;;;4422270;32;316900;-89
2023/03/26 08:15:28;;;;;;;4.03;3.20;;;;;;;;;;4411043;32;415333;-91
2023/03/26 08:18:01;;;;;;;3.00;2.70;;;;;;;;;;4420439;32;355060;-91
2023/03/26 08:20:37;;;;;;;3.93;2.20;;;;;;;;;;4410225;32;415541;-91
2023/03/26 08:23:14;;;;;;;4.10;2.67;;;;;;;;;;4412276;32;330619;-91
2023/03/26 08:25:50;;;;;;;5.25;3.30;;;;;;;;;;4422078;32;316763;-91
2023/03/26 08:28:29;;;;;;;4.12;2.50;;;;;;;;;;4413378;32;317365;-92
2023/03/26 08:30:56;;;;;;;8.00;4.00;;;;;;;;;;4412167;32;317172;-92
2023/03/26 08:33:27;;;;;;;4.68;3.00;;;;;;;;;;4422261;32;317888;-90
2023/03/26 08:35:53;;;;;;;4.32;3.17;;;;;;;;;;4422908;32;316554;-93
2023/03/26 08:38:24;;;;;;;3.03;2.65;;;;;;;;;;4411662;32;416702;-96
2023/03/26 08:41:24;;;;;;;3.50;2.12;;;;;;;;;;4428666;32;315171;-96
2023/03/26 08:44:36;;;;;;;3.95;2.83;;;;;;;;;;4428134;32;415414;-96
2023/03/26 08:47:49;;;;;;;3.47;1.87;;;;;;;;;;4424972;27;414835;-85
2023/03/26 08:50:44;;;;;;;2.25;1.98;;;;;;;;;;4408525;32;316634;-85
2023/03/26 08:53:45;;;;;;;2.03;1.83;;;;;;;;;;4407366;32;316620;-82
2023/03/26 08:56:24;;;;;;;3.50;2.22;;;;;;;;;;4405573;32;316712;-85
2023/03/26 08:59:12;;;;;;;3.03;2.17;;;;;;;;;;4418450;32;316625;-81
2023/03/26 09:02:18;;;;;;;2.97;2.15;;;;;;;;;;4403948;32;417282;-84
2023/03/26 09:05:18;;;;;;;2.08;1.87;;;;;;;;;;4357942;32;417414;-80
2023/03/26 09:08:20;;;;;;;4.20;1.80;;;;;;;;;;4404713;32;417038;-80
2023/03/26 09:11:00;;;;;;;3.45;2.40;;;;;;;;;;4409040;32;417182;-79
2023/03/26 09:13:52;;;;;;;2.87;2.50;;;;;;;;;;4408765;32;416177;-90
2023/03/26 09:17:01;;;;;;;2.22;1.77;;;;;;;;;;4406551;32;316953;-82
2023/03/26 09:20:01;;;;;;;3.42;2.20;;;;;;;;;;4396593;32;417311;-82
2023/03/26 09:23:14;;;;;;;2.17;1.73;;;;;;;;;;4369352;32;420239;-81
2023/03/26 09:26:18;;;;;;;3.17;1.80;;;;;;;;;;4366062;32;416909;-87
2023/03/26 09:29:18;;;;;;;1.90;1.70;;;;;;;;;;4401497;32;417243;-84
2023/03/26 09:32:11;;;;;;;5.75;2.20;;;;;;;;;;4403191;32;416490;-81
2023/03/26 09:34:55;;;;;;;2.95;1.90;;;;;;;;;;4404210;32;388405;-81
2023/03/26 09:37:28;;;;;;;3.33;2.60;;;;;;;;;;4403166;32;417221;-82
2023/03/26 09:40:09;;;;;;;2.58;2.17;;;;;;;;;;4409542;32;316944;-83
2023/03/26 09:42:44;;;;;;;2.10;1.62;;;;;;;;;;4414517;32;316565;-81
2023/03/26 09:45:39;;;;;;;2.80;1.87;;;;;;;;;;4405939;32;316729;-85
2023/03/26 09:48:36;;;;;;;2.30;1.80;;;;;;;;;;4406571;32;317012;-89
2023/03/26 09:51:20;;;;;;;4.80;2.05;;;;;;;;;;4406506;32;316888;-82
2023/03/26 09:54:11;;;;;;;2.00;1.80;;;;;;;;;;4415923;32;328934;-84
2023/03/26 09:56:52;;;;;;;2.25;2.05;;;;;;;;;;4403701;32;417328;-82
2023/03/26 09:59:40;;;;;;;1.65;1.55;;;;;;;;;;4405563;32;346995;-85
2023/03/26 10:02:23;;;;;;;2.50;2.30;;;;;;;;;;4407461;32;316594;-88
2023/03/26 10:05:13;;;;;;;2.95;1.75;;;;;;;;;;4417041;32;316694;-83
2023/03/26 10:08:13;;;;;;;5.87;1.95;;;;;;;;;;4401521;32;417245;-84
2023/03/26 10:10:47;;;;;;;2.33;1.87;;;;;;;;;;4389610;32;388769;-81
2023/03/26 10:13:28;;;;;;;3.40;1.80;;;;;;;;;;4406196;32;316838;-81
2023/03/26 10:16:12;;;;;;;1.70;1.60;;;;;;;;;;4412352;32;316613;-86
2023/03/26 10:18:52;;;;;;;3.08;2.30;;;;;;;;;;4417493;32;316757;-79
2023/03/26 10:21:29;;;;;;;1.83;1.62;;;;;;;;;;4404660;32;346343;-81
2023/03/26 10:24:12;;;;;;;4.25;2.00;;;;;;;;;;4407113;32;316838;-92
2023/03/26 10:26:57;;;;;;;5.18;1.75;;;;;;;;;;4416672;32;316759;-80
2023/03/26 10:29:44;;;;;;;2.08;1.62;;;;;;;;;;4404276;32;417151;-79
2023/03/26 10:32:26;;;;;;;2.20;1.73;;;;;;;;;;4405577;32;316670;-81
2023/03/26 10:35:08;;;;;;;2.03;1.65;;;;;;;;;;4417250;32;317081;-83
2023/03/26 10:37:55;;;;;;;1.73;1.35;;;;;;;;;;4403117;32;416810;-81
2023/03/26 10:40:30;;;;;;;2.08;1.65;;;;;;;;;;4403097;32;416915;-81
2023/03/26 10:43:30;;;;;;;2.45;1.60;;;;;;;;;;4402126;32;316610;-81
2023/03/26 10:46:25;;;;;;;2.35;1.40;;;;;;;;;;4375295;32;316707;-81
2023/03/26 10:49:30;;;;;;;2.83;1.42;;;;;;;;;;4416378;32;340603;-85
2023/03/26 10:51:59;;;;;;;3.67;2.03;;;;;;;;;;4339525;32;416857;-82
2023/03/26 10:54:37;;;;;;;2.33;2.12;;;;;;;;;;4402211;32;316735;-87
2023/03/26 10:57:11;;;;;;;1.50;1.40;;;;;;;;;;4405306;32;316802;-82
2023/03/26 10:59:39;;;;;;;2.05;1.77;;;;;;;;;;4416456;32;316872;-83
2023/03/26 11:02:27;;;;;;;5.37;1.92;;;;;;;;;;4406169;32;316663;-80
2023/03/26 11:05:14;;;;;;;4.62;1.30;;;;;;;;;;4415634;32;316642;-81
2023/03/26 11:07:50;;;;;;;1.55;1.15;;;;;;;;;;4402000;32;417320;-81
2023/03/26 11:10:24;;;;;;;1.67;1.25;;;;;;;;;;4404830;32;316746;-81
2023/03/26 11:12:57;;;;;;;1.60;1.50;;;;;;;;;;4415848;32;316567;-81
2023/03/26 11:15:30;;;;;;;1.87;1.30;;;;;;;;;;4403997;32;387185;-86
2023/03/26 11:18:06;;;;;;;3.03;1.50;;;;;;;;;;4404593;32;316719;-90
2023/03/26 11:20:40;;;;;;;1.70;1.30;;;;;;;;;;4415021;32;317015;-91
2023/03/26 11:23:30;;;;;;;2.42;1.77;;;;;;;;;;4407470;32;316814;-86
2023/03/26 11:26:08;;;;;;;1.75;1.65;;;;;;;;;;4403960;32;316584;-87
2023/03/26 11:28:52;;;;;;;2.37;1.42;;;;;;;;;;4418403;32;316627;-84
2023/03/26 11:31:28;;;;;;;1.87;1.60;;;;;;;;;;4405368;32;316764;-84
2023/03/26 11:33:59;;;;;;;3.55;1.83;;;;;;;;;;4411010;32;316751;-85
2023/03/26 11:36:34;;;;;;;2.17;1.37;;;;;;;;;;4416973;32;317105;-86
2023/03/26 11:39:08;;;;;;;2.58;1.52;;;;;;;;;;4405434;32;316537;-85
2023/03/26 11:41:35;;;;;;;1.25;1.12;;;;;;;;;;4417027;32;317153;-85
2023/03/26 11:44:07;;;;;;;1.65;1.20;;;;;;;;;;4404661;32;316737;-84
2023/03/26 11:46:40;;;;;;;1.52;1.23;;;;;;;;;;4414899;32;316552;-84
2023/03/26 11:49:10;;;;;;;1.30;1.20;;;;;;;;;;4406053;32;316727;-84
2023/03/26 11:51:42;;;;;;;1.50;1.33;;;;;;;;;;4415654;32;316697;-85
2023/03/26 11:54:12;;;;;;;1.40;1.12;;;;;;;;;;4406530;32;316584;-84
2023/03/26 11:56:47;;;;;;;2.47;1.50;;;;;;;;;;4415602;32;316869;-81
2023/03/26 11:59:18;;;;;;;5.37;1.37;;;;;;;;;;4405287;32;316672;-83
2023/03/26 12:01:50;;;;;;;1.33;1.17;;;;;;;;;;4413945;32;316781;-81
2023/03/26 12:04:19;;;;;;;1.98;1.25;;;;;;;;;;4403889;32;316721;-78
2023/03/26 12:06:58;;;;;;;1.95;1.73;;;;;;;;;;4415251;32;355830;-77
2023/03/26 12:09:26;;;;;;;2.00;1.33;;;;;;;;;;4403289;32;416393;-78
2023/03/26 12:12:00;;;;;;;1.95;1.55;;;;;;;;;;4419090;32;316991;-77
2023/03/26 12:14:30;;;;;;;1.98;1.20;;;;;;;;;;4405381;32;416036;-77
2023/03/26 12:17:02;;;;;;;6.30;2.80;;;;;;;;;;4408625;32;316852;-78
2023/03/26 12:19:38;;;;;;;1.70;1.30;;;;;;;;;;4418025;32;317138;-78
2023/03/26 12:22:28;;;;;;;4.45;1.40;;;;;;;;;;4408623;32;317020;-78
2023/03/26 12:25:04;;;;;;;4.62;1.67;;;;;;;;;;4418003;32;316655;-78
2023/03/26 12:27:32;;;;;;;2.40;1.52;;;;;;;;;;4405834;32;417129;-81
2023/03/26 12:30:08;;;;;;;2.95;1.52;;;;;;;;;;4408739;32;316616;-78
2023/03/26 12:32:43;;;;;;;1.42;1.33;;;;;;;;;;4416962;32;317107;-80
2023/03/26 12:35:18;;;;;;;10.53;3.47;;;;;;;;;;4406043;32;316568;-88
2023/03/26 12:37:48;;;;;;;2.25;1.85;;;;;;;;;;4419117;32;317614;-82
2023/03/26 12:40:33;;;;;;;3.83;2.95;;;;;;;;;;4407080;32;316671;-86
2023/03/26 12:43:02;;;;;;;1.85;1.20;;;;;;;;;;4409737;32;316581;-80
2023/03/26 12:45:31;;;;;;;1.80;1.30;;;;;;;;;;4419301;32;316706;-92
2023/03/26 12:48:00;;;;;;;1.20;1.10;;;;;;;;;;4408084;32;316510;-82
2023/03/26 12:50:46;;;;;;;2.35;1.30;;;;;;;;;;4416143;32;316487;-93
2023/03/26 12:53:38;;;;;;;2.95;1.60;;;;;;;;;;4409481;32;316685;-92
2023/03/26 12:56:14;;;;;;;2.17;1.70;;;;;;;;;;4408200;32;316469;-93
2023/03/26 12:59:11;;;;;;;1.40;1.08;;;;;;;;;;4418501;32;316558;-93
2023/03/26 13:01:49;;;;;;;2.30;1.15;;;;;;;;;;4403882;32;417533;-81
2023/03/26 13:04:33;;;;;;;1.90;1.20;;;;;;;;;;4386003;32;317177;-90
2023/03/26 13:07:07;;;;;;;1.20;1.10;;;;;;;;;;4408747;32;316339;-90
2023/03/26 13:09:54;;;;;;;3.17;1.60;;;;;;;;;;4418325;32;316550;-85
2023/03/26 13:12:34;;;;;;;2.58;1.65;;;;;;;;;;4415967;32;387523;-82
2023/03/26 13:15:17;;;;;;;1.17;1.08;;;;;;;;;;4421127;32;316488;-82
2023/03/26 13:17:56;;;;;;;8.65;2.33;;;;;;;;;;4433091;32;316312;-81
2023/03/26 13:20:33;;;;;;;2.28;1.40;;;;;;;;;;4412808;32;417499;-84
2023/03/26 13:23:07;;;;;;;2.03;1.55;;;;;;;;;;4405702;32;316697;-78
2023/03/26 13:25:43;;;;;;;2.55;1.70;;;;;;;;;;4388093;32;315900;-85
2023/03/26 13:28:22;;;;;;;2.10;1.80;;;;;;;;;;4408470;32;344153;-82
2023/03/26 13:30:58;;;;;;;2.28;1.95;;;;;;;;;;4425646;32;316248;-79
2023/03/26 13:33:38;;;;;;;2.58;1.75;;;;;;;;;;4410271;32;420062;-86
2023/03/26 13:36:13;;;;;;;1.62;1.10;;;;;;;;;;4408982;32;316843;-89
2023/03/26 13:38:55;;;;;;;1.50;1.20;;;;;;;;;;4423815;32;316178;-78
2023/03/26 13:41:38;;;;;;;1.40;1.30;;;;;;;;;;4402466;32;420014;-84
2023/03/26 13:44:21;;;;;;;4.37;2.92;;;;;;;;;;4399160;32;316775;-86
2023/03/26 13:46:54;;;;;;;12.77;2.95;;;;;;;;;;4402456;32;317349;-84
2023/03/26 13:49:36;;;;;;;3.08;1.90;;;;;;;;;;4392924;32;421078;-86
2023/03/26 13:52:07;;;;;;;2.47;1.48;;;;;;;;;;4390717;32;316689;-85
2023/03/26 13:54:39;;;;;;;1.02;0.93;;;;;;;;;;4401695;32;316829;-82
2023/03/26 13:57:15;;;;;;;3.40;1.77;;;;;;;;;;4390900;32;316815;-85
2023/03/26 13:59:48;;;;;;;2.58;1.40;;;;;;;;;;4399723;32;316657;-83
2023/03/26 14:02:23;;;;;;;1.20;1.10;;;;;;;;;;4389002;32;316622;-82
2023/03/26 14:04:54;;;;;;;4.12;1.52;;;;;;;;;;4399644;32;316106;-86
2023/03/26 14:07:38;;;;;;;2.10;1.20;;;;;;;;;;4386960;32;416212;-87
2023/03/26 14:10:10;;;;;;;1.52;0.98;;;;;;;;;;4391262;32;316533;-88
2023/03/26 14:12:50;;;;;;;1.95;1.40;;;;;;;;;;4401971;32;315382;-84
2023/03/26 14:15:22;;;;;;;3.25;1.80;;;;;;;;;;4390019;32;316651;-83
2023/03/26 14:17:56;;;;;;;4.07;1.20;;;;;;;;;;4401330;32;316850;-87
2023/03/26 14:20:55;;;;;;;2.45;1.12;;;;;;;;;;4389048;32;417072;-84
2023/03/26 14:23:55;;;;;;;1.52;1.30;;;;;;;;;;4387196;32;417119;-87
2023/03/26 14:26:36;;;;;;;7.97;3.53;;;;;;;;;;4362706;32;416752;-88
2023/03/26 14:29:31;;;;;;;2.75;1.70;;;;;;;;;;4389269;32;316523;-84
2023/03/26 14:32:09;;;;;;;8.40;2.00;;;;;;;;;;4390806;32;316594;-88
2023/03/26 14:34:45;;;;;;;3.70;1.65;;;;;;;;;;4402163;32;316789;-87
2023/03/26 14:37:47;;;;;;;2.80;1.92;;;;;;;;;;4390862;32;316807;-87
2023/03/26 14:40:31;;;;;;;2.08;1.20;;;;;;;;;;4387556;32;316736;-87
2023/03/26 14:43:12;;;;;;;2.45;1.40;;;;;;;;;;4391438;32;316920;-87
2023/03/26 14:46:06;;;;;;;1.83;1.15;;;;;;;;;;4399225;32;316753;-83
2023/03/26 14:48:50;;;;;;;2.40;1.60;;;;;;;;;;4388621;32;417215;-87
2023/03/26 14:51:34;;;;;;;3.15;1.60;;;;;;;;;;4391028;32;316665;-87
2023/03/26 14:54:06;;;;;;;5.85;2.08;;;;;;;;;;4391355;32;316576;-83
2023/03/26 14:57:06;;;;;;;5.40;3.85;;;;;;;;;;4399915;32;316711;-86
2023/03/26 15:00:21;;;;;;;1.20;1.10;;;;;;;;;;4379569;32;416419;-83
2023/03/26 15:03:14;;;;;;;1.90;1.20;;;;;;;;;;4388628;32;417018;-83
2023/03/26 15:06:26;;;;;;;3.08;1.45;;;;;;;;;;4388615;32;417133;-87
2023/03/26 15:09:53;;;;;;;4.45;1.40;;;;;;;;;;4370226;32;416623;-87
2023/03/26 15:12:34;;;;;;;2.72;1.60;;;;;;;;;;4351388;32;418757;-84
2023/03/26 15:15:30;;;;;;;2.00;1.40;;;;;;;;;;4390687;32;316920;-83